createdAt,value
2022-08-06T00:00:07.727Z,102280
2022-08-06T00:01:00.238Z,102280
2022-08-06T00:02:00.385Z,102290
2022-08-06T00:03:00.178Z,102290
2022-08-06T00:04:00.740Z,102290
2022-08-06T00:05:00.712Z,102290
2022-08-06T00:06:00.210Z,102280
2022-08-06T00:07:00.209Z,102280
2022-08-06T00:08:01.879Z,102280
2022-08-06T00:09:00.162Z,102280
2022-08-06T00:10:02.214Z,102290
2022-08-06T00:11:00.189Z,102290
2022-08-06T00:12:00.677Z,102290
2022-08-06T00:13:04.247Z,102290
2022-08-06T00:14:00.172Z,102290
2022-08-06T00:15:00.962Z,102290
2022-08-06T00:16:08.622Z,102300
2022-08-06T00:17:00.507Z,102300
2022-08-06T00:18:00.167Z,102300
2022-08-06T00:19:00.343Z,102300
2022-08-06T00:20:00.719Z,102300
2022-08-06T00:21:00.497Z,102300
2022-08-06T00:22:00.203Z,102300
2022-08-06T00:23:00.871Z,102300
2022-08-06T00:24:00.173Z,102300
2022-08-06T00:25:00.176Z,102300
2022-08-06T00:26:00.160Z,102310
2022-08-06T00:27:06.029Z,102310
2022-08-06T00:28:00.180Z,102310
2022-08-06T00:29:00.147Z,102310
2022-08-06T00:30:06.148Z,102310
2022-08-06T00:31:01.062Z,102310
2022-08-06T00:32:00.175Z,102310
2022-08-06T00:33:00.150Z,102310
2022-08-06T00:34:00.376Z,102310
2022-08-06T00:35:00.192Z,102310
2022-08-06T00:36:00.517Z,102320
2022-08-06T00:37:00.181Z,102320
2022-08-06T00:38:00.179Z,102320
2022-08-06T00:39:01.863Z,102320
2022-08-06T00:40:00.411Z,102320
2022-08-06T00:41:00.935Z,102320
2022-08-06T00:42:00.182Z,102320
2022-08-06T00:43:06.406Z,102320
2022-08-06T00:44:00.424Z,102320
2022-08-06T00:45:00.175Z,102320
2022-08-06T00:46:00.170Z,102320
2022-08-06T00:47:00.199Z,102320
2022-08-06T00:48:01.614Z,102320
2022-08-06T00:49:09.968Z,102320
2022-08-06T00:50:02.451Z,102330
2022-08-06T00:51:00.776Z,102330
2022-08-06T00:52:00.179Z,102330
2022-08-06T00:53:01.053Z,102330
2022-08-06T00:54:00.561Z,102320
2022-08-06T00:55:00.169Z,102320
2022-08-06T00:56:01.823Z,102330
2022-08-06T00:57:00.206Z,102330
2022-08-06T00:58:00.185Z,102320
2022-08-06T00:59:03.477Z,102320
2022-08-06T01:00:01.457Z,102330
2022-08-06T01:01:00.248Z,102330
2022-08-06T01:02:00.189Z,102330
2022-08-06T01:03:00.169Z,102330
2022-08-06T01:04:00.200Z,102330
2022-08-06T01:05:33.911Z,102330
2022-08-06T01:06:30.044Z,102330
2022-08-06T01:07:00.172Z,102330
2022-08-06T01:08:00.188Z,102330
2022-08-06T01:09:00.169Z,102330
2022-08-06T01:10:00.317Z,102330
2022-08-06T01:11:00.177Z,102330
2022-08-06T01:12:00.544Z,102340
2022-08-06T01:13:00.185Z,102340
2022-08-06T01:14:02.656Z,102340
2022-08-06T01:15:02.760Z,102340
2022-08-06T01:16:10.124Z,102340
2022-08-06T01:17:06.024Z,102340
2022-08-06T01:18:09.175Z,102340
2022-08-06T01:19:00.154Z,102340
2022-08-06T01:21:57.610Z,102340
2022-08-06T01:21:57.883Z,102340
2022-08-06T01:22:30.185Z,102350
2022-08-06T01:23:01.155Z,102350
2022-08-06T01:24:10.123Z,102350
2022-08-06T01:25:10.119Z,102350
2022-08-06T01:26:10.097Z,102350
2022-08-06T01:27:10.098Z,102350
2022-08-06T01:28:10.119Z,102350
2022-08-06T01:29:14.517Z,102350
2022-08-06T01:30:03.806Z,102350
2022-08-06T01:31:09.697Z,102350
2022-08-06T01:32:03.481Z,102350
2022-08-06T01:33:04.458Z,102350
2022-08-06T01:34:03.227Z,102360
2022-08-06T01:35:13.571Z,102360
2022-08-06T01:36:02.499Z,102360
2022-08-06T01:37:10.101Z,102360
2022-08-06T01:38:03.992Z,102360
2022-08-06T01:39:01.302Z,102360
2022-08-06T01:40:04.713Z,102360
2022-08-06T01:41:02.894Z,102360
2022-08-06T01:42:02.263Z,102360
2022-08-06T01:43:01.603Z,102360
2022-08-06T01:44:06.863Z,102360
2022-08-06T01:45:00.942Z,102360
2022-08-06T01:46:01.258Z,102360
2022-08-06T01:47:02.122Z,102360
2022-08-06T01:48:03.158Z,102360
2022-08-06T01:49:08.994Z,102360
2022-08-06T01:50:05.504Z,102360
2022-08-06T01:51:02.293Z,102360
2022-08-06T01:52:14.336Z,102360
2022-08-06T01:53:01.456Z,102360
2022-08-06T01:54:06.690Z,102360
2022-08-06T01:55:00.838Z,102360
2022-08-06T01:56:01.673Z,102360
2022-08-06T01:57:00.421Z,102360
2022-08-06T01:58:18.487Z,102360
2022-08-06T01:59:04.520Z,102360
2022-08-06T02:00:01.237Z,102370
2022-08-06T02:01:03.680Z,102370
2022-08-06T02:02:05.094Z,102360
2022-08-06T02:03:04.175Z,102360
2022-08-06T02:04:00.861Z,102360
2022-08-06T02:05:09.030Z,102360
2022-08-06T02:06:00.599Z,102360
2022-08-06T02:07:03.015Z,102360
2022-08-06T02:08:37.617Z,102360
2022-08-06T02:09:22.539Z,102360
2022-08-06T02:10:02.998Z,102360
2022-08-06T02:12:02.064Z,102360
2022-08-06T02:12:07.031Z,102360
2022-08-06T02:13:02.695Z,102360
2022-08-06T02:14:00.723Z,102360
2022-08-06T02:15:06.190Z,102360
2022-08-06T02:16:01.966Z,102360
2022-08-06T02:17:13.170Z,102360
2022-08-06T02:18:06.282Z,102360
2022-08-06T02:19:10.011Z,102360
2022-08-06T02:20:18.704Z,102360
2022-08-06T02:21:18.464Z,102360
2022-08-06T02:22:01.843Z,102360
2022-08-06T02:23:01.927Z,102360
2022-08-06T02:24:02.430Z,102360
2022-08-06T02:25:02.404Z,102360
2022-08-06T02:26:01.849Z,102360
2022-08-06T02:27:00.985Z,102360
2022-08-06T02:28:00.753Z,102370
2022-08-06T02:29:01.533Z,102370
2022-08-06T02:30:06.090Z,102370
2022-08-06T02:31:01.468Z,102370
2022-08-06T02:32:01.730Z,102360
2022-08-06T02:33:02.705Z,102360
2022-08-06T02:34:02.530Z,102370
2022-08-06T02:35:00.268Z,102370
2022-08-06T02:36:04.643Z,102370
2022-08-06T02:37:05.783Z,102370
2022-08-06T02:38:07.618Z,102370
2022-08-06T02:39:04.267Z,102370
2022-08-06T02:40:04.581Z,102370
2022-08-06T02:41:10.090Z,102370
2022-08-06T02:42:03.407Z,102370
2022-08-06T02:43:04.054Z,102370
2022-08-06T02:44:05.973Z,102370
2022-08-06T02:45:00.146Z,102370
2022-08-06T02:46:11.211Z,102370
2022-08-06T02:47:17.338Z,102370
2022-08-06T02:48:03.403Z,102370
2022-08-06T02:49:03.102Z,102370
2022-08-06T02:50:01.917Z,102370
2022-08-06T02:51:05.347Z,102370
2022-08-06T02:52:12.563Z,102370
2022-08-06T02:53:03.908Z,102370
2022-08-06T02:54:05.177Z,102370
2022-08-06T02:55:07.565Z,102370
2022-08-06T02:56:04.073Z,102370
2022-08-06T02:57:03.334Z,102370
2022-08-06T02:58:07.739Z,102370
2022-08-06T02:59:01.757Z,102370
2022-08-06T03:00:03.154Z,102370
2022-08-06T03:01:03.156Z,102370
2022-08-06T03:02:01.609Z,102370
2022-08-06T03:03:01.237Z,102370
2022-08-06T03:04:01.708Z,102370
2022-08-06T03:05:02.066Z,102370
2022-08-06T03:06:00.877Z,102380
2022-08-06T03:07:03.566Z,102380
2022-08-06T03:08:01.016Z,102380
2022-08-06T03:09:01.456Z,102380
2022-08-06T03:10:00.891Z,102380
2022-08-06T03:11:01.452Z,102380
2022-08-06T03:12:01.082Z,102380
2022-08-06T03:13:03.629Z,102380
2022-08-06T03:14:01.484Z,102380
2022-08-06T03:15:07.652Z,102380
2022-08-06T03:16:01.334Z,102380
2022-08-06T03:17:00.706Z,102380
2022-08-06T03:18:01.276Z,102380
2022-08-06T03:19:56.157Z,102380
2022-08-06T03:20:01.501Z,102380
2022-08-06T03:21:00.990Z,102380
2022-08-06T03:22:01.170Z,102380
2022-08-06T03:23:01.810Z,102380
2022-08-06T03:24:00.989Z,102380
2022-08-06T03:25:01.099Z,102380
2022-08-06T03:26:05.256Z,102380
2022-08-06T03:27:00.805Z,102380
2022-08-06T03:28:02.316Z,102390
2022-08-06T03:29:00.720Z,102390
2022-08-06T03:30:02.167Z,102390
2022-08-06T03:31:01.142Z,102390
2022-08-06T03:32:24.669Z,102390
2022-08-06T03:33:07.574Z,102390
2022-08-06T03:34:03.932Z,102390
2022-08-06T03:35:02.517Z,102390
2022-08-06T03:36:01.259Z,102390
2022-08-06T03:37:00.987Z,102390
2022-08-06T03:38:02.373Z,102390
2022-08-06T03:39:01.611Z,102390
2022-08-06T03:40:00.622Z,102390
2022-08-06T03:41:00.789Z,102390
2022-08-06T03:42:08.191Z,102390
2022-08-06T03:43:00.190Z,102390
2022-08-06T03:44:03.748Z,102390
2022-08-06T03:45:00.363Z,102390
2022-08-06T03:46:02.053Z,102390
2022-08-06T03:47:00.133Z,102390
2022-08-06T03:48:07.518Z,102390
2022-08-06T03:49:02.604Z,102390
2022-08-06T03:50:04.255Z,102400
2022-08-06T03:51:01.988Z,102400
2022-08-06T03:52:00.679Z,102390
2022-08-06T03:53:02.908Z,102390
2022-08-06T03:54:00.589Z,102400
2022-08-06T03:55:04.724Z,102400
2022-08-06T03:56:02.064Z,102390
2022-08-06T03:57:08.332Z,102390
2022-08-06T03:58:02.821Z,102390
2022-08-06T03:59:04.652Z,102390
2022-08-06T04:00:01.761Z,102400
2022-08-06T04:01:02.462Z,102400
2022-08-06T04:02:01.279Z,102400
2022-08-06T04:03:02.918Z,102400
2022-08-06T04:04:01.071Z,102410
2022-08-06T04:05:00.722Z,102410
2022-08-06T04:06:01.701Z,102410
2022-08-06T04:07:02.778Z,102410
2022-08-06T04:08:03.596Z,102420
2022-08-06T04:09:00.581Z,102420
2022-08-06T04:10:01.646Z,102420
2022-08-06T04:11:00.314Z,102420
2022-08-06T04:12:37.039Z,102420
2022-08-06T04:13:08.403Z,102420
2022-08-06T04:14:07.498Z,102420
2022-08-06T04:15:00.795Z,102420
2022-08-06T04:16:02.134Z,102420
2022-08-06T04:17:01.461Z,102420
2022-08-06T04:18:00.766Z,102420
2022-08-06T04:19:00.403Z,102420
2022-08-06T04:20:00.680Z,102420
2022-08-06T04:21:19.575Z,102420
2022-08-06T04:23:03.386Z,102420
2022-08-06T04:23:09.142Z,102420
2022-08-06T04:24:00.275Z,102430
2022-08-06T04:25:00.211Z,102430
2022-08-06T04:26:02.137Z,102430
2022-08-06T04:27:05.436Z,102430
2022-08-06T04:28:01.573Z,102430
2022-08-06T04:29:01.104Z,102430
2022-08-06T04:30:02.489Z,102430
2022-08-06T04:31:00.842Z,102430
2022-08-06T04:32:12.740Z,102430
2022-08-06T04:33:02.023Z,102430
2022-08-06T04:34:01.323Z,102430
2022-08-06T04:36:05.196Z,102430
2022-08-06T04:36:06.382Z,102440
2022-08-06T04:37:01.443Z,102440
2022-08-06T04:38:00.957Z,102440
2022-08-06T04:39:00.462Z,102440
2022-08-06T04:40:00.758Z,102440
2022-08-06T04:41:03.514Z,102440
2022-08-06T04:42:01.113Z,102440
2022-08-06T04:43:00.525Z,102440
2022-08-06T04:44:00.366Z,102440
2022-08-06T04:45:00.661Z,102440
2022-08-06T04:46:15.983Z,102440
2022-08-06T04:47:01.250Z,102440
2022-08-06T04:48:02.710Z,102440
2022-08-06T04:49:00.791Z,102440
2022-08-06T04:50:04.236Z,102450
2022-08-06T04:51:02.373Z,102450
2022-08-06T04:52:35.242Z,102450
2022-08-06T04:53:08.264Z,102450
2022-08-06T04:54:03.221Z,102450
2022-08-06T04:55:00.177Z,102450
2022-08-06T04:56:03.428Z,102450
2022-08-06T04:57:00.168Z,102450
2022-08-06T04:58:08.044Z,102450
2022-08-06T04:59:00.169Z,102450
2022-08-06T05:00:00.182Z,102460
2022-08-06T05:01:10.129Z,102460
2022-08-06T05:02:00.892Z,102460
2022-08-06T05:03:00.282Z,102460
2022-08-06T05:04:06.065Z,102460
2022-08-06T05:05:00.195Z,102460
2022-08-06T05:06:10.090Z,102460
2022-08-06T05:07:05.146Z,102460
2022-08-06T05:08:01.825Z,102450
2022-08-06T05:09:04.030Z,102450
2022-08-06T05:10:00.209Z,102460
2022-08-06T05:11:01.784Z,102460
2022-08-06T05:12:04.308Z,102460
2022-08-06T05:13:00.722Z,102460
2022-08-06T05:14:08.146Z,102460
2022-08-06T05:15:10.097Z,102460
2022-08-06T05:16:02.764Z,102460
2022-08-06T05:17:00.665Z,102460
2022-08-06T05:18:03.870Z,102460
2022-08-06T05:19:19.577Z,102460
2022-08-06T05:20:04.387Z,102460
2022-08-06T05:21:00.653Z,102460
2022-08-06T05:22:11.437Z,102460
2022-08-06T05:23:19.258Z,102460
2022-08-06T05:24:00.334Z,102470
2022-08-06T05:25:03.890Z,102470
2022-08-06T05:26:00.453Z,102470
2022-08-06T05:27:00.791Z,102470
2022-08-06T05:28:10.018Z,102470
2022-08-06T05:29:00.220Z,102470
2022-08-06T05:30:01.171Z,102480
2022-08-06T05:31:00.157Z,102480
2022-08-06T05:32:02.473Z,102470
2022-08-06T05:33:02.083Z,102470
2022-08-06T05:34:00.823Z,102480
2022-08-06T05:35:00.164Z,102480
2022-08-06T05:36:04.750Z,102480
2022-08-06T05:37:00.170Z,102480
2022-08-06T05:38:01.276Z,102480
2022-08-06T05:39:00.644Z,102480
2022-08-06T05:40:00.266Z,102490
2022-08-06T05:41:01.637Z,102490
2022-08-06T05:42:01.160Z,102490
2022-08-06T05:43:00.203Z,102490
2022-08-06T05:44:01.354Z,102490
2022-08-06T05:45:00.780Z,102490
2022-08-06T05:46:03.309Z,102500
2022-08-06T05:47:04.441Z,102500
2022-08-06T05:48:02.626Z,102500
2022-08-06T05:49:00.147Z,102500
2022-08-06T05:50:10.098Z,102500
2022-08-06T05:51:08.024Z,102500
2022-08-06T05:52:04.345Z,102500
2022-08-06T05:53:04.204Z,102500
2022-08-06T05:54:05.187Z,102500
2022-08-06T05:55:00.137Z,102500
2022-08-06T05:56:04.391Z,102500
2022-08-06T05:57:04.845Z,102500
2022-08-06T05:58:02.803Z,102490
2022-08-06T05:59:02.620Z,102490
2022-08-06T06:00:02.278Z,102490
2022-08-06T06:01:01.948Z,102490
2022-08-06T06:02:01.814Z,102500
2022-08-06T06:03:01.870Z,102500
2022-08-06T06:04:00.380Z,102500
2022-08-06T06:06:04.531Z,102500
2022-08-06T06:06:04.937Z,102500
2022-08-06T06:07:04.349Z,102500
2022-08-06T06:08:08.386Z,102500
2022-08-06T06:09:01.860Z,102500
2022-08-06T06:10:03.646Z,102500
2022-08-06T06:11:00.315Z,102500
2022-08-06T06:12:02.165Z,102500
2022-08-06T06:13:01.536Z,102500
2022-08-06T06:14:00.244Z,102500
2022-08-06T06:15:03.811Z,102500
2022-08-06T06:16:10.107Z,102500
2022-08-06T06:17:10.091Z,102500
2022-08-06T06:18:02.177Z,102500
2022-08-06T06:19:15.309Z,102500
2022-08-06T06:20:00.134Z,102500
2022-08-06T06:21:17.925Z,102500
2022-08-06T06:22:10.107Z,102500
2022-08-06T06:23:10.813Z,102500
2022-08-06T06:24:10.099Z,102500
2022-08-06T06:25:10.116Z,102500
2022-08-06T06:26:10.108Z,102500
2022-08-06T06:27:35.510Z,102500
2022-08-06T06:28:05.451Z,102500
2022-08-06T06:29:11.139Z,102500
2022-08-06T06:30:10.423Z,102500
2022-08-06T06:31:12.206Z,102500
2022-08-06T06:32:30.268Z,102510
2022-08-06T06:33:11.308Z,102510
2022-08-06T06:34:06.870Z,102510
2022-08-06T06:35:07.991Z,102510
2022-08-06T06:36:03.892Z,102510
2022-08-06T06:37:03.656Z,102510
2022-08-06T06:38:10.114Z,102510
2022-08-06T06:39:05.759Z,102510
2022-08-06T06:40:05.693Z,102510
2022-08-06T06:41:20.311Z,102510
2022-08-06T06:42:03.752Z,102510
2022-08-06T06:43:10.092Z,102510
2022-08-06T06:44:00.153Z,102510
2022-08-06T06:46:06.116Z,102510
2022-08-06T06:46:07.481Z,102510
2022-08-06T06:47:03.292Z,102510
2022-08-06T06:48:08.675Z,102510
2022-08-06T06:49:10.098Z,102510
2022-08-06T06:50:07.497Z,102510
2022-08-06T06:51:04.156Z,102510
2022-08-06T06:52:09.001Z,102510
2022-08-06T06:53:00.629Z,102510
2022-08-06T06:54:08.951Z,102510
2022-08-06T06:55:11.904Z,102510
2022-08-06T06:56:02.818Z,102510
2022-08-06T07:00:43.826Z,102520
2022-08-06T07:01:26.867Z,102520
2022-08-06T07:02:05.388Z,102520
2022-08-06T07:03:01.645Z,102520
2022-08-06T07:04:02.346Z,102510
2022-08-06T07:05:01.570Z,102510
2022-08-06T07:06:06.029Z,102510
2022-08-06T07:07:09.605Z,102510
2022-08-06T07:08:02.541Z,102520
2022-08-06T07:09:07.790Z,102520
2022-08-06T07:10:02.195Z,102520
2022-08-06T07:11:00.920Z,102520
2022-08-06T07:12:02.117Z,102520
2022-08-06T07:13:00.990Z,102520
2022-08-06T07:14:01.561Z,102520
2022-08-06T07:15:01.644Z,102520
2022-08-06T07:16:00.870Z,102520
2022-08-06T07:17:01.366Z,102520
2022-08-06T07:18:09.025Z,102520
2022-08-06T07:19:01.463Z,102520
2022-08-06T07:20:04.892Z,102520
2022-08-06T07:21:01.538Z,102520
2022-08-06T07:22:00.959Z,102520
2022-08-06T07:24:06.722Z,102520
2022-08-06T07:24:06.829Z,102520
2022-08-06T07:25:01.435Z,102520
2022-08-06T07:26:00.708Z,102520
2022-08-06T07:27:03.452Z,102520
2022-08-06T07:28:00.171Z,102530
2022-08-06T07:29:03.720Z,102530
2022-08-06T07:30:01.069Z,102530
2022-08-06T07:31:04.294Z,102530
2022-08-06T07:32:00.623Z,102520
2022-08-06T07:33:01.667Z,102520
2022-08-06T07:34:02.206Z,102520
2022-08-06T07:35:01.146Z,102520
2022-08-06T07:36:00.411Z,102520
2022-08-06T07:37:00.919Z,102520
2022-08-06T07:38:00.880Z,102530
2022-08-06T07:39:03.012Z,102530
2022-08-06T07:40:01.281Z,102530
2022-08-06T07:41:09.294Z,102530
2022-08-06T07:42:10.828Z,102530
2022-08-06T07:43:02.279Z,102530
2022-08-06T07:44:01.205Z,102530
2022-08-06T07:45:01.350Z,102530
2022-08-06T07:46:02.156Z,102540
2022-08-06T07:47:23.881Z,102540
2022-08-06T07:48:04.339Z,102540
2022-08-06T07:49:02.173Z,102540
2022-08-06T07:50:01.813Z,102530
2022-08-06T07:51:01.035Z,102530
2022-08-06T07:52:00.626Z,102540
2022-08-06T07:53:00.828Z,102540
2022-08-06T07:54:09.526Z,102540
2022-08-06T07:55:00.487Z,102540
2022-08-06T07:56:01.317Z,102540
2022-08-06T07:57:02.269Z,102540
2022-08-06T07:58:01.061Z,102540
2022-08-06T07:59:00.567Z,102540
2022-08-06T08:00:00.334Z,102550
2022-08-06T08:01:00.575Z,102550
2022-08-06T08:02:01.205Z,102540
2022-08-06T08:03:00.798Z,102540
2022-08-06T08:04:00.557Z,102540
2022-08-06T08:05:00.537Z,102540
2022-08-06T08:06:01.698Z,102550
2022-08-06T08:07:01.032Z,102550
2022-08-06T08:08:00.237Z,102550
2022-08-06T08:09:01.537Z,102550
2022-08-06T08:10:02.660Z,102550
2022-08-06T08:11:00.758Z,102550
2022-08-06T08:12:26.387Z,102550
2022-08-06T08:13:03.513Z,102550
2022-08-06T08:14:02.257Z,102550
2022-08-06T08:15:02.828Z,102550
2022-08-06T08:16:00.218Z,102550
2022-08-06T08:17:00.188Z,102550
2022-08-06T08:18:00.158Z,102550
2022-08-06T08:19:05.705Z,102550
2022-08-06T08:20:15.619Z,102550
2022-08-06T08:21:00.782Z,102550
2022-08-06T08:22:02.443Z,102560
2022-08-06T08:23:00.909Z,102560
2022-08-06T08:24:00.166Z,102550
2022-08-06T08:25:00.209Z,102550
2022-08-06T08:26:01.358Z,102550
2022-08-06T08:27:22.145Z,102550
2022-08-06T08:29:00.152Z,102550
2022-08-06T08:30:00.171Z,102550
2022-08-06T08:31:00.176Z,102550
2022-08-06T08:32:00.550Z,102550
2022-08-06T08:33:00.158Z,102550
2022-08-06T08:34:00.152Z,102550
2022-08-06T08:35:00.430Z,102550
2022-08-06T08:36:01.774Z,102550
2022-08-06T08:37:00.174Z,102550
2022-08-06T08:38:00.167Z,102560
2022-08-06T08:39:00.506Z,102560
2022-08-06T08:40:00.207Z,102560
2022-08-06T08:41:02.946Z,102560
2022-08-06T08:42:09.013Z,102550
2022-08-06T08:43:01.742Z,102550
2022-08-06T08:44:04.071Z,102550
2022-08-06T08:45:00.761Z,102550
2022-08-06T08:46:00.968Z,102550
2022-08-06T08:47:00.676Z,102550
2022-08-06T08:48:01.034Z,102560
2022-08-06T08:49:01.141Z,102560
2022-08-06T08:50:01.940Z,102560
2022-08-06T08:51:00.496Z,102560
2022-08-06T08:52:01.329Z,102550
2022-08-06T08:53:06.344Z,102550
2022-08-06T08:54:01.505Z,102560
2022-08-06T08:55:01.565Z,102560
2022-08-06T08:57:06.356Z,102560
2022-08-06T08:57:06.639Z,102560
2022-08-06T08:58:38.335Z,102560
2022-08-06T08:59:56.333Z,102560
2022-08-06T09:00:04.065Z,102560
2022-08-06T09:01:00.424Z,102560
2022-08-06T09:02:00.424Z,102560
2022-08-06T09:03:02.175Z,102560
2022-08-06T09:04:03.846Z,102560
2022-08-06T09:05:00.260Z,102560
2022-08-06T09:06:01.137Z,102570
2022-08-06T09:07:01.383Z,102570
2022-08-06T09:08:02.056Z,102560
2022-08-06T09:09:03.169Z,102560
2022-08-06T09:10:01.356Z,102560
2022-08-06T09:11:00.158Z,102560
2022-08-06T09:12:03.848Z,102570
2022-08-06T09:13:00.171Z,102570
2022-08-06T09:14:02.332Z,102570
2022-08-06T09:15:00.238Z,102570
2022-08-06T09:16:00.606Z,102570
2022-08-06T09:17:01.237Z,102570
2022-08-06T09:18:25.567Z,102570
2022-08-06T09:19:00.644Z,102570
2022-08-06T09:20:00.400Z,102570
2022-08-06T09:21:00.369Z,102570
2022-08-06T09:22:00.619Z,102570
2022-08-06T09:23:00.272Z,102570
2022-08-06T09:24:04.932Z,102570
2022-08-06T09:25:07.586Z,102570
2022-08-06T09:26:03.649Z,102570
2022-08-06T09:27:03.163Z,102570
2022-08-06T09:28:00.184Z,102570
2022-08-06T09:29:00.383Z,102570
2022-08-06T09:30:25.921Z,102570
2022-08-06T09:31:00.138Z,102570
2022-08-06T09:32:00.926Z,102570
2022-08-06T09:33:04.304Z,102570
2022-08-06T09:34:19.361Z,102570
2022-08-06T09:35:00.217Z,102570
2022-08-06T09:36:01.532Z,102570
2022-08-06T09:37:05.026Z,102570
2022-08-06T09:38:01.470Z,102580
2022-08-06T09:39:00.385Z,102580
2022-08-06T09:40:13.669Z,102580
2022-08-06T09:41:02.006Z,102580
2022-08-06T09:42:00.403Z,102570
2022-08-06T09:43:00.405Z,102570
2022-08-06T09:44:08.975Z,102570
2022-08-06T09:45:05.101Z,102570
2022-08-06T09:46:00.322Z,102580
2022-08-06T09:47:00.349Z,102580
2022-08-06T09:48:03.976Z,102580
2022-08-06T09:49:45.799Z,102580
2022-08-06T09:50:00.905Z,102580
2022-08-06T09:51:00.206Z,102580
2022-08-06T09:52:10.900Z,102580
2022-08-06T09:53:01.205Z,102580
2022-08-06T09:54:05.806Z,102580
2022-08-06T09:55:00.967Z,102580
2022-08-06T09:56:00.214Z,102580
2022-08-06T09:57:00.246Z,102580
2022-08-06T09:58:00.305Z,102580
2022-08-06T09:59:01.292Z,102580
2022-08-06T10:00:00.220Z,102580
2022-08-06T10:01:10.094Z,102580
2022-08-06T10:02:00.177Z,102580
2022-08-06T10:04:02.427Z,102570
2022-08-06T10:04:05.040Z,102580
2022-08-06T10:05:19.375Z,102570
2022-08-06T10:06:04.379Z,102570
2022-08-06T10:07:01.139Z,102570
2022-08-06T10:08:03.133Z,102570
2022-08-06T10:09:20.788Z,102570
2022-08-06T10:10:00.178Z,102570
2022-08-06T10:11:05.370Z,102570
2022-08-06T10:12:00.166Z,102570
2022-08-06T10:13:10.089Z,102570
2022-08-06T10:14:00.166Z,102570
2022-08-06T10:15:01.160Z,102570
2022-08-06T10:16:10.088Z,102570
2022-08-06T10:17:02.942Z,102570
2022-08-06T10:18:00.161Z,102570
2022-08-06T10:19:18.042Z,102570
2022-08-06T10:20:10.287Z,102570
2022-08-06T10:21:01.668Z,102570
2022-08-06T10:22:09.093Z,102570
2022-08-06T10:23:00.232Z,102570
2022-08-06T10:24:01.810Z,102570
2022-08-06T10:25:01.162Z,102570
2022-08-06T10:26:03.925Z,102570
2022-08-06T10:27:00.222Z,102570
2022-08-06T10:28:01.107Z,102560
2022-08-06T10:29:01.317Z,102560
2022-08-06T10:30:03.550Z,102560
2022-08-06T10:31:01.965Z,102560
2022-08-06T10:32:00.885Z,102570
2022-08-06T10:33:04.826Z,102570
2022-08-06T10:34:02.342Z,102560
2022-08-06T10:35:04.616Z,102560
2022-08-06T10:36:04.472Z,102560
2022-08-06T10:37:02.207Z,102560
2022-08-06T10:38:04.254Z,102550
2022-08-06T10:39:03.213Z,102550
2022-08-06T10:40:09.107Z,102550
2022-08-06T10:41:03.434Z,102550
2022-08-06T10:42:05.952Z,102540
2022-08-06T10:43:02.268Z,102540
2022-08-06T10:44:00.616Z,102540
2022-08-06T10:45:00.830Z,102540
2022-08-06T10:46:01.675Z,102550
2022-08-06T10:47:00.176Z,102550
2022-08-06T10:48:58.774Z,102540
2022-08-06T10:50:24.121Z,102540
2022-08-06T10:50:31.803Z,102540
2022-08-06T10:51:01.231Z,102540
2022-08-06T10:52:04.446Z,102540
2022-08-06T10:53:00.988Z,102540
2022-08-06T10:54:09.027Z,102540
2022-08-06T10:55:00.509Z,102540
2022-08-06T10:56:01.260Z,102540
2022-08-06T10:57:01.435Z,102540
2022-08-06T10:58:00.914Z,102540
2022-08-06T10:59:00.637Z,102540
2022-08-06T11:00:00.932Z,102540
2022-08-06T11:01:02.712Z,102540
2022-08-06T11:02:03.458Z,102540
2022-08-06T11:03:13.825Z,102540
2022-08-06T11:04:10.102Z,102540
2022-08-06T11:05:08.308Z,102540
2022-08-06T11:06:09.795Z,102540
2022-08-06T11:07:10.087Z,102540
2022-08-06T11:08:08.204Z,102530
2022-08-06T11:09:10.104Z,102530
2022-08-06T11:10:05.523Z,102540
2022-08-06T11:11:04.674Z,102540
2022-08-06T11:12:14.639Z,102540
2022-08-06T11:13:07.936Z,102540
2022-08-06T11:14:03.366Z,102540
2022-08-06T11:15:01.677Z,102540
2022-08-06T11:16:00.408Z,102530
2022-08-06T11:17:00.346Z,102530
2022-08-06T11:18:04.334Z,102540
2022-08-06T11:19:00.143Z,102540
2022-08-06T11:20:00.206Z,102540
2022-08-06T11:21:00.176Z,102540
2022-08-06T11:22:04.046Z,102540
2022-08-06T11:23:00.775Z,102540
2022-08-06T11:24:01.249Z,102540
2022-08-06T11:25:00.553Z,102540
2022-08-06T11:26:01.429Z,102530
2022-08-06T11:27:01.719Z,102530
2022-08-06T11:28:05.163Z,102530
2022-08-06T11:29:00.518Z,102530
2022-08-06T11:30:07.262Z,102530
2022-08-06T11:31:01.850Z,102530
2022-08-06T11:32:00.167Z,102530
2022-08-06T11:33:00.180Z,102530
2022-08-06T11:34:03.066Z,102530
2022-08-06T11:35:10.109Z,102530
2022-08-06T11:36:01.063Z,102520
2022-08-06T11:37:01.274Z,102520
2022-08-06T11:38:03.694Z,102520
2022-08-06T11:39:10.223Z,102520
2022-08-06T11:40:07.898Z,102520
2022-08-06T11:41:06.366Z,102520
2022-08-06T11:42:01.035Z,102510
2022-08-06T11:43:00.156Z,102510
2022-08-06T11:44:04.055Z,102510
2022-08-06T11:45:08.257Z,102510
2022-08-06T11:46:19.937Z,102520
2022-08-06T11:47:08.733Z,102520
2022-08-06T11:48:04.594Z,102520
2022-08-06T11:49:00.146Z,102520
2022-08-06T11:50:00.191Z,102520
2022-08-06T11:51:15.449Z,102520
2022-08-06T11:52:06.482Z,102520
2022-08-06T11:53:00.278Z,102520
2022-08-06T11:54:10.096Z,102520
2022-08-06T11:55:01.334Z,102520
2022-08-06T11:56:04.251Z,102510
2022-08-06T11:57:01.161Z,102510
2022-08-06T11:58:10.703Z,102510
2022-08-06T11:59:10.090Z,102510
2022-08-06T12:00:02.863Z,102510
2022-08-06T12:01:03.604Z,102510
2022-08-06T12:02:02.297Z,102510
2022-08-06T12:03:00.217Z,102510
2022-08-06T12:04:00.178Z,102510
2022-08-06T12:05:00.294Z,102510
2022-08-06T12:06:00.423Z,102500
2022-08-06T12:07:10.088Z,102500
2022-08-06T12:08:10.301Z,102500
2022-08-06T12:09:13.055Z,102500
2022-08-06T12:10:01.143Z,102500
2022-08-06T12:11:10.099Z,102500
2022-08-06T12:12:10.085Z,102500
2022-08-06T12:13:00.179Z,102500
2022-08-06T12:14:33.937Z,102500
2022-08-06T12:15:19.840Z,102500
2022-08-06T12:16:11.955Z,102500
2022-08-06T12:17:08.709Z,102500
2022-08-06T12:18:19.091Z,102500
2022-08-06T12:19:03.151Z,102500
2022-08-06T12:20:02.409Z,102500
2022-08-06T12:21:00.460Z,102500
2022-08-06T12:22:00.713Z,102490
2022-08-06T12:23:01.449Z,102490
2022-08-06T12:24:00.227Z,102490
2022-08-06T12:25:10.105Z,102490
2022-08-06T12:26:00.343Z,102490
2022-08-06T12:27:00.362Z,102490
2022-08-06T12:28:00.608Z,102490
2022-08-06T12:29:01.072Z,102490
2022-08-06T12:30:00.549Z,102480
2022-08-06T12:31:00.166Z,102480
2022-08-06T12:32:00.296Z,102480